Main page
METAR-TAF:

METAR-TAF

Airports :

Abraham Lincoln Capital Airport

Springfield, Illinois, United States

latitude: 39-50-43N, longitude: 089-41-02W, elevation: 597 ft

Current weather observation

The report was made 36 minutes ago, at 21:52 UTC
Wind 13 mph from the North
Temperature 27°F
Humidity 46%
Pressure 30.69 in. Hg
Visibility: 10 miles
Clear sky

METAR: KSPI 202152Z 35011KT 10SM CLR M03/M13 A3069 RMK AO2 SLP402 T10281128

Time: 16:28 (22:28 UTC)

Forecast

The report was made 1 hour and 32 minutes ago, at 20:56 UTC
Forecast valid from 20 at 21 UTC to 21 at 18 UTC
Wind 14 mph from the North with gusts up to 21 mph
Visibility: 6 miles
Clear sky
From 21 at 0200 UTC
Wind 5 mph from variable directions
Visibility: 6 miles
Clear sky
From 21 at 1400 UTC
Wind 7 mph from the Southwest
Visibility: 6 miles
Clear sky

TAF: KSPI 202056Z 2021/2118 36012G18KT P6SM SKC FM210200 VRB04KT P6SM SKC FM211400 23006KT P6SM SKC

Weather observations and forecasts of more than 4000 airports (METAR and TAF reports).

The available stations are represented by yellow and red dots on the map.

Hover mouse over dot to see the name of the station.

Then click to see weather observations and forecasts.

To change the map : click on the green buttons with a black cross to zoom in, on the green button with a dash to zoom out, or on the green arrows for adjacent maps.


METAR-TAF: